sensor_id;sensor_type;location;lat;lon;timestamp;temperature;humidity
26408;DHT22;14583;43.604;1.364;2023-08-06T00:00:22;19.00;99.90
26408;DHT22;14583;43.604;1.364;2023-08-06T00:02:48;19.00;99.90
26408;DHT22;14583;43.604;1.364;2023-08-06T00:05:14;19.00;99.90
26408;DHT22;14583;43.604;1.364;2023-08-06T00:07:48;19.00;99.90
26408;DHT22;14583;43.604;1.364;2023-08-06T00:10:15;19.00;99.90
26408;DHT22;14583;43.604;1.364;2023-08-06T00:12:40;19.00;99.90
26408;DHT22;14583;43.604;1.364;2023-08-06T00:15:06;18.90;99.90
26408;DHT22;14583;43.604;1.364;2023-08-06T00:17:33;18.90;99.90
26408;DHT22;14583;43.604;1.364;2023-08-06T00:19:59;18.80;99.90
26408;DHT22;14583;43.604;1.364;2023-08-06T00:22:33;18.80;99.90
26408;DHT22;14583;43.604;1.364;2023-08-06T00:24:59;18.80;99.90
26408;DHT22;14583;43.604;1.364;2023-08-06T00:27:25;18.90;99.90
26408;DHT22;14583;43.604;1.364;2023-08-06T00:29:51;18.90;99.90
26408;DHT22;14583;43.604;1.364;2023-08-06T00:32:17;19.00;99.90
26408;DHT22;14583;43.604;1.364;2023-08-06T00:34:43;19.00;99.90
26408;DHT22;14583;43.604;1.364;2023-08-06T00:37:09;19.00;99.90
26408;DHT22;14583;43.604;1.364;2023-08-06T00:39:34;18.80;99.90
26408;DHT22;14583;43.604;1.364;2023-08-06T00:42:00;18.90;99.90
26408;DHT22;14583;43.604;1.364;2023-08-06T00:44:25;18.80;99.90
26408;DHT22;14583;43.604;1.364;2023-08-06T00:46:51;18.80;99.90
26408;DHT22;14583;43.604;1.364;2023-08-06T00:49:17;18.80;99.90
26408;DHT22;14583;43.604;1.364;2023-08-06T00:51:43;18.80;99.90
26408;DHT22;14583;43.604;1.364;2023-08-06T00:54:09;18.80;99.90
26408;DHT22;14583;43.604;1.364;2023-08-06T00:56:35;18.80;99.90
26408;DHT22;14583;43.604;1.364;2023-08-06T00:59:03;18.80;99.90
26408;DHT22;14583;43.604;1.364;2023-08-06T01:01:30;18.70;99.90
26408;DHT22;14583;43.604;1.364;2023-08-06T01:03:56;18.70;99.90
26408;DHT22;14583;43.604;1.364;2023-08-06T01:12:05;18.60;99.90
26408;DHT22;14583;43.604;1.364;2023-08-06T01:14:41;18.60;99.90
26408;DHT22;14583;43.604;1.364;2023-08-06T01:17:11;18.60;99.90
26408;DHT22;14583;43.604;1.364;2023-08-06T01:19:37;18.60;99.90
26408;DHT22;14583;43.604;1.364;2023-08-06T01:22:03;18.60;99.90
26408;DHT22;14583;43.604;1.364;2023-08-06T01:24:30;18.60;99.90
26408;DHT22;14583;43.604;1.364;2023-08-06T01:27:09;18.50;99.90
26408;DHT22;14583;43.604;1.364;2023-08-06T01:29:44;18.60;99.90
26408;DHT22;14583;43.604;1.364;2023-08-06T01:32:12;18.60;99.90
26408;DHT22;14583;43.604;1.364;2023-08-06T01:34:40;18.50;99.90
26408;DHT22;14583;43.604;1.364;2023-08-06T01:37:07;18.60;99.90
26408;DHT22;14583;43.604;1.364;2023-08-06T01:39:36;18.50;99.90
26408;DHT22;14583;43.604;1.364;2023-08-06T01:42:02;18.50;99.90
26408;DHT22;14583;43.604;1.364;2023-08-06T01:44:27;18.40;99.90
26408;DHT22;14583;43.604;1.364;2023-08-06T01:46:53;18.40;99.90
26408;DHT22;14583;43.604;1.364;2023-08-06T01:49:19;18.40;99.90
26408;DHT22;14583;43.604;1.364;2023-08-06T01:51:44;18.40;99.90
26408;DHT22;14583;43.604;1.364;2023-08-06T01:54:10;18.40;99.90
26408;DHT22;14583;43.604;1.364;2023-08-06T01:56:35;18.40;99.90
26408;DHT22;14583;43.604;1.364;2023-08-06T01:59:01;18.40;99.90
26408;DHT22;14583;43.604;1.364;2023-08-06T02:01:27;18.40;99.90
26408;DHT22;14583;43.604;1.364;2023-08-06T02:03:52;18.40;99.90
26408;DHT22;14583;43.604;1.364;2023-08-06T02:06:18;18.30;99.90
26408;DHT22;14583;43.604;1.364;2023-08-06T02:08:44;18.30;99.90
26408;DHT22;14583;43.604;1.364;2023-08-06T02:11:09;18.30;99.90
26408;DHT22;14583;43.604;1.364;2023-08-06T02:13:35;18.20;99.90
26408;DHT22;14583;43.604;1.364;2023-08-06T02:16:00;18.20;99.90
26408;DHT22;14583;43.604;1.364;2023-08-06T02:18:26;18.10;99.90
26408;DHT22;14583;43.604;1.364;2023-08-06T02:20:56;18.20;99.90
26408;DHT22;14583;43.604;1.364;2023-08-06T02:23:22;18.20;99.90
26408;DHT22;14583;43.604;1.364;2023-08-06T02:25:48;18.20;99.90
26408;DHT22;14583;43.604;1.364;2023-08-06T02:28:14;18.20;99.90
26408;DHT22;14583;43.604;1.364;2023-08-06T02:30:39;18.20;99.90
26408;DHT22;14583;43.604;1.364;2023-08-06T02:33:05;18.20;99.90
26408;DHT22;14583;43.604;1.364;2023-08-06T02:35:30;18.20;99.90
26408;DHT22;14583;43.604;1.364;2023-08-06T02:37:56;18.20;99.90
26408;DHT22;14583;43.604;1.364;2023-08-06T02:40:22;18.30;99.90
26408;DHT22;14583;43.604;1.364;2023-08-06T02:42:47;18.30;99.90
26408;DHT22;14583;43.604;1.364;2023-08-06T02:45:13;18.30;99.90
26408;DHT22;14583;43.604;1.364;2023-08-06T02:47:39;18.20;99.90
26408;DHT22;14583;43.604;1.364;2023-08-06T02:50:05;18.20;99.90
26408;DHT22;14583;43.604;1.364;2023-08-06T02:52:30;18.20;99.90
26408;DHT22;14583;43.604;1.364;2023-08-06T02:54:56;18.20;99.90
26408;DHT22;14583;43.604;1.364;2023-08-06T02:57:25;18.20;99.90
26408;DHT22;14583;43.604;1.364;2023-08-06T02:59:50;18.30;99.90
26408;DHT22;14583;43.604;1.364;2023-08-06T03:02:16;18.30;99.90
26408;DHT22;14583;43.604;1.364;2023-08-06T03:04:42;18.20;99.90
26408;DHT22;14583;43.604;1.364;2023-08-06T03:07:08;18.20;99.90
26408;DHT22;14583;43.604;1.364;2023-08-06T03:09:33;18.10;99.90
26408;DHT22;14583;43.604;1.364;2023-08-06T03:11:59;18.20;99.90
26408;DHT22;14583;43.604;1.364;2023-08-06T03:14:24;18.20;99.90
26408;DHT22;14583;43.604;1.364;2023-08-06T03:16:50;18.10;99.90
26408;DHT22;14583;43.604;1.364;2023-08-06T03:19:15;18.20;99.90
26408;DHT22;14583;43.604;1.364;2023-08-06T03:21:41;18.20;99.90
26408;DHT22;14583;43.604;1.364;2023-08-06T03:24:07;18.20;99.90
26408;DHT22;14583;43.604;1.364;2023-08-06T03:26:32;18.20;99.90
26408;DHT22;14583;43.604;1.364;2023-08-06T03:28:58;18.20;99.90
26408;DHT22;14583;43.604;1.364;2023-08-06T03:31:23;18.20;99.90
26408;DHT22;14583;43.604;1.364;2023-08-06T03:33:49;18.20;99.90
26408;DHT22;14583;43.604;1.364;2023-08-06T03:36:15;18.10;99.90
26408;DHT22;14583;43.604;1.364;2023-08-06T03:38:40;18.10;99.90
26408;DHT22;14583;43.604;1.364;2023-08-06T03:41:06;18.10;99.90
26408;DHT22;14583;43.604;1.364;2023-08-06T03:43:31;18.10;99.90
26408;DHT22;14583;43.604;1.364;2023-08-06T03:45:57;18.10;99.90
26408;DHT22;14583;43.604;1.364;2023-08-06T03:48:23;18.10;99.90
26408;DHT22;14583;43.604;1.364;2023-08-06T03:50:48;18.10;99.90
26408;DHT22;14583;43.604;1.364;2023-08-06T03:53:14;18.10;99.90
26408;DHT22;14583;43.604;1.364;2023-08-06T03:55:39;18.10;99.90
26408;DHT22;14583;43.604;1.364;2023-08-06T03:58:05;18.00;99.90
26408;DHT22;14583;43.604;1.364;2023-08-06T04:00:31;18.10;99.90
26408;DHT22;14583;43.604;1.364;2023-08-06T04:02:56;18.10;99.90
26408;DHT22;14583;43.604;1.364;2023-08-06T04:05:22;18.10;99.90
26408;DHT22;14583;43.604;1.364;2023-08-06T04:07:47;18.20;99.90
26408;DHT22;14583;43.604;1.364;2023-08-06T04:10:13;18.20;99.90
26408;DHT22;14583;43.604;1.364;2023-08-06T04:12:39;18.20;99.90
26408;DHT22;14583;43.604;1.364;2023-08-06T04:15:05;18.20;99.90
26408;DHT22;14583;43.604;1.364;2023-08-06T04:17:31;18.20;99.90
26408;DHT22;14583;43.604;1.364;2023-08-06T04:19:56;18.20;99.90
26408;DHT22;14583;43.604;1.364;2023-08-06T04:22:25;18.30;99.90
26408;DHT22;14583;43.604;1.364;2023-08-06T04:24:51;18.30;99.90
26408;DHT22;14583;43.604;1.364;2023-08-06T04:27:17;18.30;99.90
26408;DHT22;14583;43.604;1.364;2023-08-06T04:29:43;18.20;99.90
26408;DHT22;14583;43.604;1.364;2023-08-06T04:32:09;18.20;99.90
26408;DHT22;14583;43.604;1.364;2023-08-06T04:34:36;18.20;99.90
26408;DHT22;14583;43.604;1.364;2023-08-06T04:37:03;18.10;99.90
26408;DHT22;14583;43.604;1.364;2023-08-06T04:39:29;18.10;99.90
26408;DHT22;14583;43.604;1.364;2023-08-06T04:41:55;18.10;99.90
26408;DHT22;14583;43.604;1.364;2023-08-06T04:44:25;18.00;99.90
26408;DHT22;14583;43.604;1.364;2023-08-06T04:46:54;18.10;99.90
26408;DHT22;14583;43.604;1.364;2023-08-06T04:49:20;18.10;99.90
26408;DHT22;14583;43.604;1.364;2023-08-06T04:51:46;18.10;99.90
26408;DHT22;14583;43.604;1.364;2023-08-06T04:54:12;18.00;99.90
26408;DHT22;14583;43.604;1.364;2023-08-06T04:56:37;18.00;99.90
26408;DHT22;14583;43.604;1.364;2023-08-06T04:59:03;18.10;99.90
26408;DHT22;14583;43.604;1.364;2023-08-06T05:01:29;18.10;99.90
26408;DHT22;14583;43.604;1.364;2023-08-06T05:03:55;18.00;99.90
26408;DHT22;14583;43.604;1.364;2023-08-06T05:06:20;18.00;99.90
26408;DHT22;14583;43.604;1.364;2023-08-06T05:08:46;18.00;99.90
26408;DHT22;14583;43.604;1.364;2023-08-06T05:11:11;18.00;99.90
26408;DHT22;14583;43.604;1.364;2023-08-06T05:13:37;18.00;99.90
26408;DHT22;14583;43.604;1.364;2023-08-06T05:16:03;17.90;99.90
26408;DHT22;14583;43.604;1.364;2023-08-06T05:18:28;17.90;99.90
26408;DHT22;14583;43.604;1.364;2023-08-06T05:20:55;18.00;99.90
26408;DHT22;14583;43.604;1.364;2023-08-06T05:23:21;18.00;99.90
26408;DHT22;14583;43.604;1.364;2023-08-06T05:25:47;18.00;99.90
26408;DHT22;14583;43.604;1.364;2023-08-06T05:28:12;17.90;99.90
26408;DHT22;14583;43.604;1.364;2023-08-06T05:30:41;17.80;99.90
26408;DHT22;14583;43.604;1.364;2023-08-06T05:33:07;17.90;99.90
26408;DHT22;14583;43.604;1.364;2023-08-06T05:35:33;17.90;99.90
26408;DHT22;14583;43.604;1.364;2023-08-06T05:37:58;17.80;99.90
26408;DHT22;14583;43.604;1.364;2023-08-06T05:40:27;17.80;99.90
26408;DHT22;14583;43.604;1.364;2023-08-06T05:42:54;17.90;99.90
26408;DHT22;14583;43.604;1.364;2023-08-06T05:45:19;17.80;99.90
26408;DHT22;14583;43.604;1.364;2023-08-06T05:47:45;17.90;99.90
26408;DHT22;14583;43.604;1.364;2023-08-06T05:50:13;17.90;99.90
26408;DHT22;14583;43.604;1.364;2023-08-06T05:52:38;17.90;99.90
26408;DHT22;14583;43.604;1.364;2023-08-06T05:55:04;17.90;99.90
26408;DHT22;14583;43.604;1.364;2023-08-06T05:57:30;17.80;99.90
26408;DHT22;14583;43.604;1.364;2023-08-06T05:59:55;17.80;99.90
26408;DHT22;14583;43.604;1.364;2023-08-06T06:02:21;17.80;99.90
26408;DHT22;14583;43.604;1.364;2023-08-06T06:04:47;17.90;99.90
26408;DHT22;14583;43.604;1.364;2023-08-06T06:07:12;17.90;99.90
26408;DHT22;14583;43.604;1.364;2023-08-06T06:09:39;17.90;99.90
26408;DHT22;14583;43.604;1.364;2023-08-06T06:12:06;17.90;99.90
26408;DHT22;14583;43.604;1.364;2023-08-06T06:14:31;17.90;99.90
26408;DHT22;14583;43.604;1.364;2023-08-06T06:16:57;17.90;99.90
26408;DHT22;14583;43.604;1.364;2023-08-06T06:19:23;17.90;99.90
26408;DHT22;14583;43.604;1.364;2023-08-06T06:21:48;17.90;99.90
26408;DHT22;14583;43.604;1.364;2023-08-06T06:24:14;18.00;99.90
26408;DHT22;14583;43.604;1.364;2023-08-06T06:26:41;17.80;99.90
26408;DHT22;14583;43.604;1.364;2023-08-06T06:29:06;17.90;99.90
26408;DHT22;14583;43.604;1.364;2023-08-06T06:31:32;17.90;99.90
26408;DHT22;14583;43.604;1.364;2023-08-06T06:33:57;18.00;99.90
26408;DHT22;14583;43.604;1.364;2023-08-06T06:36:23;18.10;99.90
26408;DHT22;14583;43.604;1.364;2023-08-06T06:38:49;18.00;99.90
26408;DHT22;14583;43.604;1.364;2023-08-06T06:41:15;17.90;99.90
26408;DHT22;14583;43.604;1.364;2023-08-06T06:43:40;18.00;99.90
26408;DHT22;14583;43.604;1.364;2023-08-06T06:46:06;18.10;99.90
26408;DHT22;14583;43.604;1.364;2023-08-06T06:48:32;18.00;99.90
26408;DHT22;14583;43.604;1.364;2023-08-06T06:50:58;18.10;99.90
26408;DHT22;14583;43.604;1.364;2023-08-06T06:53:24;18.30;99.90
26408;DHT22;14583;43.604;1.364;2023-08-06T06:56:03;18.30;99.90
26408;DHT22;14583;43.604;1.364;2023-08-06T06:58:29;18.40;99.90
26408;DHT22;14583;43.604;1.364;2023-08-06T07:00:55;18.40;99.90
26408;DHT22;14583;43.604;1.364;2023-08-06T07:03:21;18.40;99.90
26408;DHT22;14583;43.604;1.364;2023-08-06T07:05:47;18.50;99.90
26408;DHT22;14583;43.604;1.364;2023-08-06T07:08:12;18.50;99.90
26408;DHT22;14583;43.604;1.364;2023-08-06T07:10:40;18.50;99.90
26408;DHT22;14583;43.604;1.364;2023-08-06T07:13:06;18.50;99.90
26408;DHT22;14583;43.604;1.364;2023-08-06T07:15:31;18.40;99.90
26408;DHT22;14583;43.604;1.364;2023-08-06T07:17:57;18.50;99.90
26408;DHT22;14583;43.604;1.364;2023-08-06T07:20:23;18.30;99.90
26408;DHT22;14583;43.604;1.364;2023-08-06T07:22:48;18.40;99.90
26408;DHT22;14583;43.604;1.364;2023-08-06T07:25:16;18.50;99.90
26408;DHT22;14583;43.604;1.364;2023-08-06T07:27:41;18.60;99.90
26408;DHT22;14583;43.604;1.364;2023-08-06T07:30:07;18.70;99.90
26408;DHT22;14583;43.604;1.364;2023-08-06T07:32:33;18.80;99.90
26408;DHT22;14583;43.604;1.364;2023-08-06T07:34:59;18.60;99.90
26408;DHT22;14583;43.604;1.364;2023-08-06T07:37:26;18.70;99.90
26408;DHT22;14583;43.604;1.364;2023-08-06T07:39:56;18.60;99.90
26408;DHT22;14583;43.604;1.364;2023-08-06T07:42:22;18.50;99.90
26408;DHT22;14583;43.604;1.364;2023-08-06T07:44:56;18.60;99.90
26408;DHT22;14583;43.604;1.364;2023-08-06T07:47:22;18.60;99.90
26408;DHT22;14583;43.604;1.364;2023-08-06T07:49:48;18.60;99.90
26408;DHT22;14583;43.604;1.364;2023-08-06T07:52:14;18.60;99.90
26408;DHT22;14583;43.604;1.364;2023-08-06T07:54:39;18.60;99.90
26408;DHT22;14583;43.604;1.364;2023-08-06T07:57:05;18.60;99.90
26408;DHT22;14583;43.604;1.364;2023-08-06T07:59:31;18.70;99.90
26408;DHT22;14583;43.604;1.364;2023-08-06T08:01:57;18.70;99.90
26408;DHT22;14583;43.604;1.364;2023-08-06T08:04:24;18.90;99.90
26408;DHT22;14583;43.604;1.364;2023-08-06T08:06:49;19.00;99.90
26408;DHT22;14583;43.604;1.364;2023-08-06T08:09:15;19.10;99.90
26408;DHT22;14583;43.604;1.364;2023-08-06T08:11:41;19.00;99.90
26408;DHT22;14583;43.604;1.364;2023-08-06T08:14:07;19.00;99.90
26408;DHT22;14583;43.604;1.364;2023-08-06T08:16:33;19.00;99.90
26408;DHT22;14583;43.604;1.364;2023-08-06T08:18:58;19.10;99.90
26408;DHT22;14583;43.604;1.364;2023-08-06T08:21:24;19.20;99.90
26408;DHT22;14583;43.604;1.364;2023-08-06T08:23:50;19.20;99.90
26408;DHT22;14583;43.604;1.364;2023-08-06T08:26:16;19.20;99.90
26408;DHT22;14583;43.604;1.364;2023-08-06T08:28:42;19.20;99.90
26408;DHT22;14583;43.604;1.364;2023-08-06T08:31:08;19.20;99.90
26408;DHT22;14583;43.604;1.364;2023-08-06T08:33:35;19.30;99.90
26408;DHT22;14583;43.604;1.364;2023-08-06T08:36:00;19.30;99.90
26408;DHT22;14583;43.604;1.364;2023-08-06T08:38:26;19.30;99.90
26408;DHT22;14583;43.604;1.364;2023-08-06T08:40:53;19.50;99.90
26408;DHT22;14583;43.604;1.364;2023-08-06T08:43:22;19.50;99.90
26408;DHT22;14583;43.604;1.364;2023-08-06T08:45:53;19.60;99.90
26408;DHT22;14583;43.604;1.364;2023-08-06T08:48:24;19.60;99.90
26408;DHT22;14583;43.604;1.364;2023-08-06T08:50:51;19.50;99.90
26408;DHT22;14583;43.604;1.364;2023-08-06T08:53:17;19.50;99.90
26408;DHT22;14583;43.604;1.364;2023-08-06T08:55:47;19.70;99.90
26408;DHT22;14583;43.604;1.364;2023-08-06T08:58:14;19.80;99.90
26408;DHT22;14583;43.604;1.364;2023-08-06T09:00:42;19.80;99.90
26408;DHT22;14583;43.604;1.364;2023-08-06T09:03:07;19.80;99.90
26408;DHT22;14583;43.604;1.364;2023-08-06T09:05:33;19.80;99.90
26408;DHT22;14583;43.604;1.364;2023-08-06T09:08:03;19.80;99.90
26408;DHT22;14583;43.604;1.364;2023-08-06T09:10:29;20.00;99.90
26408;DHT22;14583;43.604;1.364;2023-08-06T09:12:56;20.10;99.90
26408;DHT22;14583;43.604;1.364;2023-08-06T09:15:25;20.20;99.90
26408;DHT22;14583;43.604;1.364;2023-08-06T09:17:55;20.20;99.90
26408;DHT22;14583;43.604;1.364;2023-08-06T09:20:21;20.00;99.90
26408;DHT22;14583;43.604;1.364;2023-08-06T09:22:47;19.90;99.90
26408;DHT22;14583;43.604;1.364;2023-08-06T09:25:24;19.90;99.90
26408;DHT22;14583;43.604;1.364;2023-08-06T09:27:51;20.10;99.90
26408;DHT22;14583;43.604;1.364;2023-08-06T09:30:37;20.10;99.90
26408;DHT22;14583;43.604;1.364;2023-08-06T09:33:08;20.00;99.90
26408;DHT22;14583;43.604;1.364;2023-08-06T09:35:35;19.90;99.90
26408;DHT22;14583;43.604;1.364;2023-08-06T09:38:09;20.00;99.90
26408;DHT22;14583;43.604;1.364;2023-08-06T09:40:36;20.10;99.90
26408;DHT22;14583;43.604;1.364;2023-08-06T09:43:02;20.40;99.90
26408;DHT22;14583;43.604;1.364;2023-08-06T09:45:31;20.40;99.90
26408;DHT22;14583;43.604;1.364;2023-08-06T09:48:00;20.40;99.90
26408;DHT22;14583;43.604;1.364;2023-08-06T09:50:32;20.50;99.90
26408;DHT22;14583;43.604;1.364;2023-08-06T09:52:59;20.40;99.90
26408;DHT22;14583;43.604;1.364;2023-08-06T09:55:26;20.20;99.90
26408;DHT22;14583;43.604;1.364;2023-08-06T09:57:53;20.30;99.90
26408;DHT22;14583;43.604;1.364;2023-08-06T10:00:19;20.40;99.90
26408;DHT22;14583;43.604;1.364;2023-08-06T10:02:46;20.50;99.90
26408;DHT22;14583;43.604;1.364;2023-08-06T10:05:11;20.60;99.90
26408;DHT22;14583;43.604;1.364;2023-08-06T10:07:38;20.50;99.70
26408;DHT22;14583;43.604;1.364;2023-08-06T10:10:07;20.40;99.90
26408;DHT22;14583;43.604;1.364;2023-08-06T10:12:52;20.40;99.90
26408;DHT22;14583;43.604;1.364;2023-08-06T10:15:24;20.50;99.50
26408;DHT22;14583;43.604;1.364;2023-08-06T10:17:53;20.50;99.00
26408;DHT22;14583;43.604;1.364;2023-08-06T10:20:20;20.70;99.10
26408;DHT22;14583;43.604;1.364;2023-08-06T10:23:00;20.70;99.00
26408;DHT22;14583;43.604;1.364;2023-08-06T10:25:26;20.80;99.00
26408;DHT22;14583;43.604;1.364;2023-08-06T10:27:55;20.90;98.40
26408;DHT22;14583;43.604;1.364;2023-08-06T10:30:26;20.80;99.00
26408;DHT22;14583;43.604;1.364;2023-08-06T10:32:59;20.60;98.80
26408;DHT22;14583;43.604;1.364;2023-08-06T10:35:41;20.50;99.20
26408;DHT22;14583;43.604;1.364;2023-08-06T10:38:15;20.50;99.00
26408;DHT22;14583;43.604;1.364;2023-08-06T10:40:48;20.50;99.00
26408;DHT22;14583;43.604;1.364;2023-08-06T10:43:37;20.60;98.70
26408;DHT22;14583;43.604;1.364;2023-08-06T10:46:09;20.90;98.20
26408;DHT22;14583;43.604;1.364;2023-08-06T10:48:39;21.00;98.70
26408;DHT22;14583;43.604;1.364;2023-08-06T10:51:10;20.90;98.80
26408;DHT22;14583;43.604;1.364;2023-08-06T10:53:36;21.00;98.10
26408;DHT22;14583;43.604;1.364;2023-08-06T10:56:12;21.20;98.30
26408;DHT22;14583;43.604;1.364;2023-08-06T10:58:38;21.10;97.80
26408;DHT22;14583;43.604;1.364;2023-08-06T11:01:04;20.90;98.10
26408;DHT22;14583;43.604;1.364;2023-08-06T11:03:32;21.00;98.00
26408;DHT22;14583;43.604;1.364;2023-08-06T11:05:58;20.90;97.70
26408;DHT22;14583;43.604;1.364;2023-08-06T11:08:28;20.90;98.00
26408;DHT22;14583;43.604;1.364;2023-08-06T11:10:54;20.90;98.00
26408;DHT22;14583;43.604;1.364;2023-08-06T11:15:13;21.10;97.70
26408;DHT22;14583;43.604;1.364;2023-08-06T11:17:40;21.10;97.80
26408;DHT22;14583;43.604;1.364;2023-08-06T11:20:06;21.20;97.90
26408;DHT22;14583;43.604;1.364;2023-08-06T11:22:32;21.30;97.90
26408;DHT22;14583;43.604;1.364;2023-08-06T11:24:58;21.10;97.00
26408;DHT22;14583;43.604;1.364;2023-08-06T11:27:26;21.00;97.50
26408;DHT22;14583;43.604;1.364;2023-08-06T11:29:52;20.90;97.40
26408;DHT22;14583;43.604;1.364;2023-08-06T11:32:18;20.90;97.10
26408;DHT22;14583;43.604;1.364;2023-08-06T11:34:44;21.10;97.00
26408;DHT22;14583;43.604;1.364;2023-08-06T11:37:09;21.50;96.80
26408;DHT22;14583;43.604;1.364;2023-08-06T11:39:37;21.60;96.10
26408;DHT22;14583;43.604;1.364;2023-08-06T11:42:04;21.50;96.10
26408;DHT22;14583;43.604;1.364;2023-08-06T11:44:31;21.30;96.30
26408;DHT22;14583;43.604;1.364;2023-08-06T11:47:01;21.10;96.20
26408;DHT22;14583;43.604;1.364;2023-08-06T11:49:48;21.10;96.60
26408;DHT22;14583;43.604;1.364;2023-08-06T11:54:42;21.30;96.00
26408;DHT22;14583;43.604;1.364;2023-08-06T11:57:08;21.60;95.10
26408;DHT22;14583;43.604;1.364;2023-08-06T11:59:34;21.60;94.70
26408;DHT22;14583;43.604;1.364;2023-08-06T12:02:02;21.70;94.90
26408;DHT22;14583;43.604;1.364;2023-08-06T12:04:27;21.80;95.00
26408;DHT22;14583;43.604;1.364;2023-08-06T12:06:53;21.80;95.10
26408;DHT22;14583;43.604;1.364;2023-08-06T12:09:19;21.90;94.50
26408;DHT22;14583;43.604;1.364;2023-08-06T12:11:46;21.70;94.60
26408;DHT22;14583;43.604;1.364;2023-08-06T12:14:11;21.70;94.60
26408;DHT22;14583;43.604;1.364;2023-08-06T12:16:37;21.70;94.20
26408;DHT22;14583;43.604;1.364;2023-08-06T12:19:03;21.80;94.10
26408;DHT22;14583;43.604;1.364;2023-08-06T12:21:29;21.70;93.90
26408;DHT22;14583;43.604;1.364;2023-08-06T12:23:55;21.60;93.70
26408;DHT22;14583;43.604;1.364;2023-08-06T12:26:21;21.70;94.70
26408;DHT22;14583;43.604;1.364;2023-08-06T12:28:46;21.80;93.70
26408;DHT22;14583;43.604;1.364;2023-08-06T12:31:12;21.80;93.50
26408;DHT22;14583;43.604;1.364;2023-08-06T12:33:37;21.80;93.20
26408;DHT22;14583;43.604;1.364;2023-08-06T12:36:03;22.10;93.50
26408;DHT22;14583;43.604;1.364;2023-08-06T12:38:29;22.50;92.80
26408;DHT22;14583;43.604;1.364;2023-08-06T12:40:59;22.40;92.90
26408;DHT22;14583;43.604;1.364;2023-08-06T12:43:24;22.20;92.60
26408;DHT22;14583;43.604;1.364;2023-08-06T12:45:50;22.20;92.40
26408;DHT22;14583;43.604;1.364;2023-08-06T12:48:17;22.20;92.20
26408;DHT22;14583;43.604;1.364;2023-08-06T12:50:42;22.50;92.00
26408;DHT22;14583;43.604;1.364;2023-08-06T12:53:08;22.80;91.50
26408;DHT22;14583;43.604;1.364;2023-08-06T12:55:34;22.70;91.40
26408;DHT22;14583;43.604;1.364;2023-08-06T12:57:59;22.60;91.40
26408;DHT22;14583;43.604;1.364;2023-08-06T13:00:28;22.40;91.40
26408;DHT22;14583;43.604;1.364;2023-08-06T13:02:54;22.20;91.70
26408;DHT22;14583;43.604;1.364;2023-08-06T13:05:19;22.10;92.20
26408;DHT22;14583;43.604;1.364;2023-08-06T13:07:45;22.20;92.50
26408;DHT22;14583;43.604;1.364;2023-08-06T13:10:11;22.40;92.30
26408;DHT22;14583;43.604;1.364;2023-08-06T13:12:37;22.40;91.40
26408;DHT22;14583;43.604;1.364;2023-08-06T13:15:02;22.50;92.20
26408;DHT22;14583;43.604;1.364;2023-08-06T13:17:28;22.40;91.70
26408;DHT22;14583;43.604;1.364;2023-08-06T13:19:54;22.20;91.90
26408;DHT22;14583;43.604;1.364;2023-08-06T13:22:20;22.50;92.00
26408;DHT22;14583;43.604;1.364;2023-08-06T13:24:45;22.60;91.70
26408;DHT22;14583;43.604;1.364;2023-08-06T13:27:11;22.70;91.90
26408;DHT22;14583;43.604;1.364;2023-08-06T13:29:36;23.00;91.60
26408;DHT22;14583;43.604;1.364;2023-08-06T13:32:02;23.10;90.70
26408;DHT22;14583;43.604;1.364;2023-08-06T13:34:28;23.00;90.60
26408;DHT22;14583;43.604;1.364;2023-08-06T13:36:54;22.90;91.30
26408;DHT22;14583;43.604;1.364;2023-08-06T13:39:19;22.80;92.10
26408;DHT22;14583;43.604;1.364;2023-08-06T13:41:45;23.00;92.50
26408;DHT22;14583;43.604;1.364;2023-08-06T13:44:11;22.90;91.30
26408;DHT22;14583;43.604;1.364;2023-08-06T13:46:36;22.90;91.50
26408;DHT22;14583;43.604;1.364;2023-08-06T13:49:02;22.80;91.10
26408;DHT22;14583;43.604;1.364;2023-08-06T13:51:28;22.60;91.30
26408;DHT22;14583;43.604;1.364;2023-08-06T13:53:54;22.70;91.40
26408;DHT22;14583;43.604;1.364;2023-08-06T13:56:22;22.80;91.60
26408;DHT22;14583;43.604;1.364;2023-08-06T13:58:48;23.00;92.00
26408;DHT22;14583;43.604;1.364;2023-08-06T14:01:17;23.20;91.70
26408;DHT22;14583;43.604;1.364;2023-08-06T14:03:43;23.10;91.10
26408;DHT22;14583;43.604;1.364;2023-08-06T14:06:09;23.10;91.20
26408;DHT22;14583;43.604;1.364;2023-08-06T14:08:37;23.20;91.10
26408;DHT22;14583;43.604;1.364;2023-08-06T14:11:03;23.50;91.10
26408;DHT22;14583;43.604;1.364;2023-08-06T14:13:29;23.60;90.70
26408;DHT22;14583;43.604;1.364;2023-08-06T14:15:54;23.50;90.80
26408;DHT22;14583;43.604;1.364;2023-08-06T14:18:20;23.30;91.30
26408;DHT22;14583;43.604;1.364;2023-08-06T14:20:46;23.30;90.80
26408;DHT22;14583;43.604;1.364;2023-08-06T14:23:11;23.50;90.60
26408;DHT22;14583;43.604;1.364;2023-08-06T14:25:40;23.60;90.00
26408;DHT22;14583;43.604;1.364;2023-08-06T14:28:06;23.70;89.70
26408;DHT22;14583;43.604;1.364;2023-08-06T14:30:32;24.00;90.00
26408;DHT22;14583;43.604;1.364;2023-08-06T14:32:59;24.00;87.80
26408;DHT22;14583;43.604;1.364;2023-08-06T14:35:26;24.20;87.70
26408;DHT22;14583;43.604;1.364;2023-08-06T14:37:51;24.10;88.30
26408;DHT22;14583;43.604;1.364;2023-08-06T14:40:17;23.90;88.00
26408;DHT22;14583;43.604;1.364;2023-08-06T14:42:43;23.80;89.60
26408;DHT22;14583;43.604;1.364;2023-08-06T14:45:09;23.70;89.50
26408;DHT22;14583;43.604;1.364;2023-08-06T14:47:34;23.60;89.90
26408;DHT22;14583;43.604;1.364;2023-08-06T14:50:00;23.70;90.00
26408;DHT22;14583;43.604;1.364;2023-08-06T14:52:26;24.00;89.00
26408;DHT22;14583;43.604;1.364;2023-08-06T14:54:51;24.30;88.30
26408;DHT22;14583;43.604;1.364;2023-08-06T14:57:20;24.60;87.90
26408;DHT22;14583;43.604;1.364;2023-08-06T14:59:47;24.80;87.50
26408;DHT22;14583;43.604;1.364;2023-08-06T15:02:13;24.90;86.70
26408;DHT22;14583;43.604;1.364;2023-08-06T15:04:38;25.00;85.70
26408;DHT22;14583;43.604;1.364;2023-08-06T15:07:04;24.90;84.60
26408;DHT22;14583;43.604;1.364;2023-08-06T15:09:30;24.90;85.10
26408;DHT22;14583;43.604;1.364;2023-08-06T15:11:55;25.30;84.60
26408;DHT22;14583;43.604;1.364;2023-08-06T15:14:21;25.30;84.50
26408;DHT22;14583;43.604;1.364;2023-08-06T15:16:47;24.90;85.00
26408;DHT22;14583;43.604;1.364;2023-08-06T15:19:12;24.40;85.70
26408;DHT22;14583;43.604;1.364;2023-08-06T15:21:38;24.10;87.30
26408;DHT22;14583;43.604;1.364;2023-08-06T15:24:04;24.00;87.30
26408;DHT22;14583;43.604;1.364;2023-08-06T15:26:29;24.10;86.50
26408;DHT22;14583;43.604;1.364;2023-08-06T15:28:55;24.10;86.70
26408;DHT22;14583;43.604;1.364;2023-08-06T15:31:22;24.20;87.30
26408;DHT22;14583;43.604;1.364;2023-08-06T15:33:48;24.40;86.10
26408;DHT22;14583;43.604;1.364;2023-08-06T15:36:14;24.80;84.60